createdAt,value
2023-01-26T00:01:22.197Z,9.18
2023-01-26T00:03:50.459Z,10.00
2023-01-26T00:06:19.960Z,11.77
2023-01-26T00:08:50.893Z,8.95
2023-01-26T00:11:26.740Z,10.07
2023-01-26T00:13:54.816Z,8.95
2023-01-26T00:16:21.853Z,14.45
2023-01-26T00:18:48.790Z,5.22
2023-01-26T00:21:18.823Z,8.02
2023-01-26T00:23:46.866Z,12.27
2023-01-26T00:26:20.508Z,2.90
2023-01-26T00:28:47.662Z,9.35
2023-01-26T00:31:27.378Z,11.07
2023-01-26T00:33:55.864Z,7.28
2023-01-26T00:36:23.485Z,8.73
2023-01-26T00:38:50.370Z,11.23
2023-01-26T00:41:35.637Z,5.63
2023-01-26T00:44:02.709Z,4.18
2023-01-26T00:46:29.591Z,9.45
2023-01-26T00:48:56.704Z,8.93
2023-01-26T00:51:23.601Z,6.05
2023-01-26T00:53:50.466Z,9.20
2023-01-26T00:56:17.369Z,8.27
2023-01-26T00:58:45.441Z,9.45
2023-01-26T01:01:12.657Z,10.75
2023-01-26T01:03:39.594Z,9.30
2023-01-26T01:06:06.457Z,12.43
2023-01-26T01:08:33.289Z,12.85
2023-01-26T01:11:09.133Z,11.23
2023-01-26T01:13:35.964Z,12.23
2023-01-26T01:16:15.550Z,12.10
2023-01-26T01:18:43.979Z,13.73
2023-01-26T01:21:14.782Z,13.38
2023-01-26T01:23:42.487Z,15.27
2023-01-26T01:26:10.244Z,11.93
2023-01-26T01:28:37.998Z,15.50
2023-01-26T01:31:11.300Z,16.67
2023-01-26T01:33:38.261Z,14.48
2023-01-26T01:36:13.132Z,14.85
2023-01-26T01:38:40.741Z,12.07
2023-01-26T01:41:08.492Z,13.98
2023-01-26T01:43:36.534Z,12.18
2023-01-26T01:46:32.557Z,17.08
2023-01-26T01:49:04.235Z,9.23
2023-01-26T01:51:51.568Z,11.27
2023-01-26T01:54:26.361Z,18.85
2023-01-26T01:56:58.498Z,16.33
2023-01-26T01:59:25.469Z,13.00
2023-01-26T02:01:53.100Z,9.70
2023-01-26T02:04:22.796Z,11.02
2023-01-26T02:06:53.108Z,13.70
2023-01-26T02:09:46.526Z,11.20
2023-01-26T02:12:16.556Z,15.65
2023-01-26T02:14:43.745Z,12.95
2023-01-26T02:17:10.671Z,13.48
2023-01-26T02:20:04.630Z,10.60
2023-01-26T02:22:44.936Z,10.65
2023-01-26T02:25:27.734Z,12.93
2023-01-26T02:27:54.546Z,11.32
2023-01-26T02:30:23.227Z,12.05
2023-01-26T02:32:50.029Z,7.95
2023-01-26T02:35:16.856Z,6.90
2023-01-26T02:37:43.643Z,10.70
2023-01-26T02:40:39.168Z,10.75
2023-01-26T02:43:06.378Z,9.93
2023-01-26T02:45:34.655Z,9.25
2023-01-26T02:48:04.698Z,11.38
2023-01-26T02:50:32.527Z,6.55
2023-01-26T02:52:59.784Z,7.30
2023-01-26T02:55:27.513Z,5.45
2023-01-26T02:58:00.607Z,12.57
2023-01-26T03:00:31.323Z,10.30
2023-01-26T03:03:01.216Z,9.55
2023-01-26T03:05:28.808Z,7.28
2023-01-26T03:07:55.933Z,6.72
2023-01-26T03:10:25.159Z,6.32
2023-01-26T03:12:52.265Z,10.20
2023-01-26T03:15:38.033Z,5.00
2023-01-26T03:18:37.062Z,3.90
2023-01-26T03:21:28.105Z,7.00
2023-01-26T03:24:13.547Z,6.22
2023-01-26T03:26:59.723Z,2.03
2023-01-26T03:29:27.440Z,2.53
2023-01-26T03:31:54.474Z,6.97
2023-01-26T03:34:21.692Z,6.25
2023-01-26T03:36:49.374Z,7.57
2023-01-26T03:39:34.656Z,3.42
2023-01-26T03:42:21.053Z,3.22
2023-01-26T03:45:06.387Z,2.60
2023-01-26T03:47:52.805Z,4.22
2023-01-26T03:50:38.202Z,4.25
2023-01-26T03:53:36.305Z,4.10
2023-01-26T03:56:23.193Z,1.45
2023-01-26T03:58:57.029Z,3.08
2023-01-26T04:01:32.986Z,2.55
2023-01-26T04:04:18.499Z,2.63
2023-01-26T04:07:06.430Z,1.70
2023-01-26T04:09:34.244Z,1.67
2023-01-26T04:12:01.104Z,1.60
2023-01-26T04:14:49.650Z,2.65
2023-01-26T04:17:37.286Z,4.47
2023-01-26T04:20:24.680Z,3.63
2023-01-26T04:22:51.566Z,1.63
2023-01-26T04:25:20.687Z,4.68
2023-01-26T04:27:47.727Z,4.20
2023-01-26T04:30:16.551Z,4.25
2023-01-26T04:32:43.988Z,6.00
2023-01-26T04:35:10.992Z,3.97
2023-01-26T04:37:38.853Z,5.75
2023-01-26T04:40:07.831Z,2.45
2023-01-26T04:42:35.226Z,4.88
2023-01-26T04:45:02.113Z,6.63
2023-01-26T04:47:29.540Z,3.85
2023-01-26T04:49:56.471Z,6.07
2023-01-26T04:52:23.346Z,4.43
2023-01-26T04:54:50.488Z,4.07
2023-01-26T04:57:20.429Z,6.20
2023-01-26T04:59:47.242Z,2.47
2023-01-26T05:02:14.384Z,2.72
2023-01-26T05:04:41.294Z,3.00
2023-01-26T05:07:08.165Z,3.80
2023-01-26T05:09:34.969Z,2.75
2023-01-26T05:12:21.754Z,2.00
2023-01-26T05:14:48.634Z,5.38
2023-01-26T05:17:15.515Z,2.83
2023-01-26T05:19:42.394Z,5.28
2023-01-26T05:22:11.529Z,4.30
2023-01-26T05:24:39.176Z,2.33
2023-01-26T05:27:21.140Z,1.70
2023-01-26T05:29:49.193Z,2.80
2023-01-26T05:32:16.362Z,4.30
2023-01-26T05:34:43.218Z,4.63
2023-01-26T05:37:10.261Z,3.88
2023-01-26T05:39:37.095Z,2.40
2023-01-26T05:42:04.144Z,4.10
2023-01-26T05:44:30.987Z,3.65
2023-01-26T05:46:57.993Z,3.42
2023-01-26T05:49:24.857Z,2.17
2023-01-26T05:51:51.731Z,1.98
2023-01-26T05:54:18.529Z,2.85
2023-01-26T05:56:45.503Z,2.55
2023-01-26T05:59:12.376Z,2.30
2023-01-26T06:01:39.758Z,3.20
2023-01-26T06:04:07.016Z,2.88
2023-01-26T06:06:34.039Z,2.80
2023-01-26T06:09:00.965Z,2.55
2023-01-26T06:11:27.842Z,3.38
2023-01-26T06:13:54.700Z,4.15
2023-01-26T06:16:21.587Z,2.85
2023-01-26T06:18:49.792Z,3.35
2023-01-26T06:21:17.039Z,3.70
2023-01-26T06:23:44.227Z,4.80
2023-01-26T06:26:11.135Z,3.97
2023-01-26T06:28:37.983Z,4.97
2023-01-26T06:31:07.166Z,4.43
2023-01-26T06:33:36.936Z,7.75
2023-01-26T06:36:11.069Z,4.40
2023-01-26T06:38:38.552Z,4.50
2023-01-26T06:41:07.793Z,5.53
2023-01-26T06:43:36.189Z,3.60
2023-01-26T06:46:05.429Z,3.20
2023-01-26T06:48:35.050Z,4.93
2023-01-26T06:51:15.399Z,6.60
2023-01-26T06:53:54.700Z,3.88
2023-01-26T06:56:23.249Z,6.05
2023-01-26T06:58:50.902Z,4.03
2023-01-26T07:01:21.139Z,5.13
2023-01-26T07:03:49.237Z,6.60
2023-01-26T07:06:16.119Z,3.80
2023-01-26T07:08:43.066Z,4.20
2023-01-26T07:11:11.579Z,4.25
2023-01-26T07:13:39.169Z,3.25
2023-01-26T07:16:13.046Z,3.25
2023-01-26T07:18:40.036Z,3.33
2023-01-26T07:21:11.152Z,2.03
2023-01-26T07:23:38.579Z,3.22
2023-01-26T07:26:05.919Z,3.28
2023-01-26T07:28:34.299Z,2.78
2023-01-26T07:31:02.651Z,3.58
2023-01-26T07:33:30.574Z,3.17
2023-01-26T07:35:58.366Z,3.78
2023-01-26T07:38:26.152Z,2.60
2023-01-26T07:40:53.306Z,2.30
2023-01-26T07:43:20.123Z,1.85
2023-01-26T07:45:51.293Z,2.70
2023-01-26T07:48:23.449Z,3.08
2023-01-26T07:50:51.175Z,1.77
2023-01-26T07:53:19.427Z,2.83
2023-01-26T07:55:47.151Z,2.10
2023-01-26T07:58:14.222Z,2.17
2023-01-26T08:00:41.267Z,2.33
2023-01-26T08:03:08.222Z,1.67
2023-01-26T08:05:37.140Z,2.13
2023-01-26T08:08:05.151Z,1.95
2023-01-26T08:10:32.444Z,1.98
2023-01-26T08:13:00.743Z,2.28
2023-01-26T08:15:28.733Z,1.90
2023-01-26T08:17:55.886Z,2.55
2023-01-26T08:20:23.378Z,1.88
2023-01-26T08:22:50.360Z,2.00
2023-01-26T08:25:17.272Z,2.20
2023-01-26T08:27:44.303Z,1.88
2023-01-26T08:30:13.039Z,2.25
2023-01-26T08:32:40.339Z,1.75
2023-01-26T08:35:07.754Z,2.05
2023-01-26T08:37:34.595Z,1.85
2023-01-26T08:40:01.457Z,1.95
2023-01-26T08:42:28.841Z,3.67
2023-01-26T08:44:55.739Z,1.70
2023-01-26T08:47:22.605Z,3.55
2023-01-26T08:49:49.416Z,3.25
2023-01-26T08:52:16.793Z,2.05
2023-01-26T08:54:43.629Z,2.70
2023-01-26T08:57:12.152Z,2.22
2023-01-26T08:59:39.034Z,2.45
2023-01-26T09:02:06.256Z,2.33
2023-01-26T09:04:33.716Z,2.17
2023-01-26T09:07:00.569Z,2.35
2023-01-26T09:09:27.420Z,3.08
2023-01-26T09:11:57.803Z,3.13
2023-01-26T09:14:24.634Z,2.28
2023-01-26T09:16:51.548Z,2.10
2023-01-26T09:19:18.507Z,2.70
2023-01-26T09:21:45.365Z,3.03
2023-01-26T09:24:12.299Z,2.08
2023-01-26T09:26:39.210Z,2.22
2023-01-26T09:29:06.070Z,2.45
2023-01-26T09:31:33.053Z,2.28
2023-01-26T09:34:00.229Z,2.53
2023-01-26T09:36:27.068Z,3.20
2023-01-26T09:38:54.090Z,2.60
2023-01-26T09:42:03.124Z,3.92
2023-01-26T09:44:57.674Z,2.00
2023-01-26T09:47:55.869Z,1.23
2023-01-26T09:50:30.595Z,3.13
2023-01-26T09:53:04.384Z,3.20
2023-01-26T09:55:31.722Z,3.08
2023-01-26T09:58:12.540Z,2.88
2023-01-26T10:00:48.770Z,2.20
2023-01-26T10:03:41.337Z,2.20
2023-01-26T10:06:16.302Z,1.80
2023-01-26T10:08:44.484Z,1.70
2023-01-26T10:11:29.274Z,3.08
2023-01-26T10:14:05.284Z,1.05
2023-01-26T10:16:34.337Z,2.00
2023-01-26T10:19:12.829Z,1.60
2023-01-26T10:21:44.709Z,1.92
2023-01-26T10:24:21.848Z,1.85
2023-01-26T10:26:51.506Z,2.40
2023-01-26T10:29:18.397Z,1.50
2023-01-26T10:31:45.786Z,1.80
2023-01-26T10:34:25.819Z,3.05
2023-01-26T10:37:20.506Z,4.30
2023-01-26T10:40:17.400Z,3.75
2023-01-26T10:42:58.826Z,5.38
2023-01-26T10:45:33.264Z,5.35
2023-01-26T10:48:24.047Z,4.78
2023-01-26T10:50:51.424Z,5.00
2023-01-26T10:53:29.514Z,3.95
2023-01-26T10:56:00.983Z,4.03
2023-01-26T10:58:57.375Z,5.57
2023-01-26T11:01:27.448Z,3.85
2023-01-26T11:04:11.937Z,5.18
2023-01-26T11:06:39.178Z,4.40
2023-01-26T11:09:18.913Z,4.03
2023-01-26T11:11:57.727Z,7.07
2023-01-26T11:14:24.805Z,7.47
2023-01-26T11:17:01.622Z,4.10
2023-01-26T11:19:50.777Z,5.15
2023-01-26T11:22:32.859Z,4.10
2023-01-26T11:25:07.973Z,4.60
2023-01-26T11:27:53.181Z,6.30
2023-01-26T11:31:00.240Z,5.18
2023-01-26T11:33:38.451Z,2.65
2023-01-26T11:36:52.887Z,7.05
2023-01-26T11:39:46.093Z,2.53
2023-01-26T11:42:25.466Z,3.92
2023-01-26T11:45:16.439Z,5.03
2023-01-26T11:48:14.646Z,5.35
2023-01-26T11:51:01.390Z,6.47
2023-01-26T11:53:44.729Z,3.78
2023-01-26T11:56:30.675Z,3.97
2023-01-26T11:59:17.860Z,6.00
2023-01-26T12:01:58.678Z,4.22
2023-01-26T12:04:25.560Z,4.13
2023-01-26T12:07:05.232Z,5.43
2023-01-26T12:09:48.034Z,3.92
2023-01-26T12:12:32.924Z,2.65
2023-01-26T12:15:27.592Z,5.22
2023-01-26T12:18:09.834Z,2.83
2023-01-26T12:20:45.780Z,4.63
2023-01-26T12:23:25.771Z,6.70
2023-01-26T12:25:59.312Z,6.05
2023-01-26T12:28:31.887Z,7.93
2023-01-26T12:31:22.345Z,5.32
2023-01-26T12:33:54.018Z,6.20
2023-01-26T12:36:55.531Z,5.60
2023-01-26T12:39:26.793Z,11.35
2023-01-26T12:42:20.012Z,0.95
2023-01-26T12:44:55.951Z,10.85
2023-01-26T12:47:48.891Z,7.55
2023-01-26T12:50:43.083Z,5.70
2023-01-26T12:53:30.143Z,3.88
2023-01-26T12:56:35.755Z,8.88
2023-01-26T12:59:46.780Z,6.95
2023-01-26T13:02:30.645Z,4.85
2023-01-26T13:05:00.270Z,7.70
2023-01-26T13:07:39.589Z,8.32
2023-01-26T13:10:17.625Z,7.95
2023-01-26T13:13:21.209Z,9.60
2023-01-26T13:16:16.989Z,2.80
2023-01-26T13:18:57.525Z,7.80
2023-01-26T13:21:40.208Z,5.43
2023-01-26T13:24:16.662Z,9.13
2023-01-26T13:26:52.617Z,4.25
2023-01-26T13:29:29.099Z,9.13
2023-01-26T13:32:08.248Z,5.90
2023-01-26T13:34:43.888Z,8.82
2023-01-26T13:37:36.796Z,9.00
2023-01-26T13:40:16.221Z,10.23
2023-01-26T13:42:58.210Z,8.23
2023-01-26T13:46:00.597Z,7.13
2023-01-26T13:48:40.398Z,10.77
2023-01-26T13:51:13.809Z,10.63
2023-01-26T13:53:43.758Z,8.80
2023-01-26T13:56:36.071Z,8.20
2023-01-26T13:59:14.107Z,8.95
2023-01-26T14:01:51.747Z,11.77
2023-01-26T14:04:23.941Z,8.25
2023-01-26T14:07:09.987Z,9.85
2023-01-26T14:09:50.778Z,9.23
2023-01-26T14:12:23.741Z,10.25
2023-01-26T14:14:54.587Z,11.45
2023-01-26T14:17:33.324Z,7.88
2023-01-26T14:20:03.505Z,11.77
2023-01-26T14:22:30.653Z,10.52
2023-01-26T14:24:57.578Z,6.40
2023-01-26T14:27:35.696Z,7.20
2023-01-26T14:30:26.396Z,8.57
2023-01-26T14:33:15.769Z,9.15
2023-01-26T14:35:59.706Z,10.77
2023-01-26T14:38:29.880Z,5.03
2023-01-26T14:41:00.450Z,9.90
2023-01-26T14:43:27.822Z,10.88
2023-01-26T14:46:12.980Z,8.80
2023-01-26T14:49:14.770Z,8.25
2023-01-26T14:51:45.457Z,8.10
2023-01-26T14:54:30.155Z,8.05
2023-01-26T14:56:59.266Z,8.77
2023-01-26T14:59:38.889Z,7.35
2023-01-26T15:02:25.548Z,8.98
2023-01-26T15:05:20.915Z,13.40
2023-01-26T15:07:55.974Z,6.70
2023-01-26T15:10:41.178Z,6.70
2023-01-26T15:13:10.675Z,9.65
2023-01-26T15:15:43.819Z,9.60
2023-01-26T15:18:13.693Z,8.98
2023-01-26T15:21:00.066Z,9.38
2023-01-26T15:23:37.774Z,6.65
2023-01-26T15:26:28.856Z,11.25
2023-01-26T15:28:59.381Z,11.00
2023-01-26T15:31:39.650Z,7.93
2023-01-26T15:34:34.623Z,8.68
2023-01-26T15:37:03.252Z,5.82
2023-01-26T15:39:30.323Z,6.53
2023-01-26T15:42:15.012Z,6.43
2023-01-26T15:44:42.426Z,7.57
2023-01-26T15:47:11.442Z,6.45
2023-01-26T15:49:38.628Z,7.70
2023-01-26T15:52:28.577Z,4.72
2023-01-26T15:54:55.589Z,7.25
2023-01-26T15:57:22.514Z,7.03
2023-01-26T15:59:49.353Z,6.65
2023-01-26T16:02:19.264Z,3.65
2023-01-26T16:04:47.220Z,5.32
2023-01-26T16:07:17.777Z,5.90
2023-01-26T16:09:44.892Z,4.85
2023-01-26T16:12:31.225Z,5.70
2023-01-26T16:14:59.044Z,4.20
2023-01-26T16:17:26.022Z,6.72
2023-01-26T16:19:52.884Z,6.93
2023-01-26T16:22:19.978Z,3.95
2023-01-26T16:24:47.304Z,4.88
2023-01-26T16:27:14.183Z,6.38
2023-01-26T16:29:41.039Z,6.47
2023-01-26T16:32:29.072Z,6.28
2023-01-26T16:34:55.877Z,7.50
2023-01-26T16:37:22.781Z,4.45
2023-01-26T16:39:49.599Z,8.93
2023-01-26T16:42:21.181Z,6.88
2023-01-26T16:44:48.408Z,7.68
2023-01-26T16:47:15.285Z,7.70
2023-01-26T16:49:42.134Z,8.13
2023-01-26T16:52:09.895Z,7.88
2023-01-26T16:54:37.049Z,6.75
2023-01-26T16:57:04.372Z,5.47
2023-01-26T16:59:31.397Z,7.35
2023-01-26T17:01:58.550Z,8.77
2023-01-26T17:04:25.630Z,8.27
2023-01-26T17:06:52.621Z,9.52
2023-01-26T17:09:21.077Z,7.10
2023-01-26T17:11:47.975Z,6.40
2023-01-26T17:14:15.018Z,11.00
2023-01-26T17:16:41.959Z,10.15
2023-01-26T17:19:09.515Z,9.30
2023-01-26T17:21:37.034Z,8.43
2023-01-26T17:24:04.468Z,6.28
2023-01-26T17:26:31.492Z,11.05
2023-01-26T17:28:58.525Z,7.25
2023-01-26T17:31:25.800Z,10.05
2023-01-26T17:33:54.585Z,9.65
2023-01-26T17:36:21.492Z,9.05
2023-01-26T17:38:49.073Z,10.10
2023-01-26T17:41:17.308Z,11.20
2023-01-26T17:43:44.856Z,10.13
2023-01-26T17:46:20.585Z,11.60
2023-01-26T17:48:50.533Z,13.95
2023-01-26T17:51:20.925Z,8.13
2023-01-26T17:53:53.620Z,11.27
2023-01-26T17:56:22.187Z,8.10
2023-01-26T17:58:54.360Z,8.05
2023-01-26T18:01:24.356Z,2.67
2023-01-26T18:03:53.482Z,7.30
2023-01-26T18:06:20.857Z,3.45
2023-01-26T18:08:48.427Z,8.43
2023-01-26T18:11:16.988Z,10.90
2023-01-26T18:13:44.469Z,8.48
2023-01-26T18:16:16.937Z,7.65
2023-01-26T18:18:44.406Z,5.28
2023-01-26T18:21:24.003Z,5.57
2023-01-26T18:23:54.483Z,1.38
2023-01-26T18:26:24.766Z,0.75
2023-01-26T18:28:52.673Z,1.80
2023-01-26T18:31:23.172Z,2.35
2023-01-26T18:33:50.243Z,0.73
2023-01-26T18:36:20.001Z,7.25
2023-01-26T18:38:56.125Z,7.50
2023-01-26T18:41:25.022Z,5.70
2023-01-26T18:43:54.557Z,9.75
2023-01-26T18:46:22.587Z,4.75
2023-01-26T18:48:52.350Z,8.45
2023-01-26T18:51:19.287Z,0.82
2023-01-26T18:53:46.152Z,2.97
2023-01-26T18:56:16.634Z,2.28
2023-01-26T18:58:43.910Z,5.78
2023-01-26T19:01:15.413Z,7.55
2023-01-26T19:03:47.223Z,7.75
2023-01-26T19:06:18.376Z,9.25
2023-01-26T19:09:01.189Z,11.38
2023-01-26T19:11:32.089Z,9.10
2023-01-26T19:13:59.932Z,7.90
2023-01-26T19:16:28.940Z,6.63
2023-01-26T19:18:56.198Z,10.38
2023-01-26T19:21:25.396Z,6.32
2023-01-26T19:23:55.732Z,10.77
2023-01-26T19:26:26.235Z,6.28
2023-01-26T19:28:54.531Z,11.18
2023-01-26T19:31:22.930Z,8.85
2023-01-26T19:34:00.045Z,9.13
2023-01-26T19:36:29.825Z,7.68
2023-01-26T19:38:57.014Z,9.02
2023-01-26T19:41:25.501Z,7.13
2023-01-26T19:43:53.132Z,8.93
2023-01-26T19:46:20.474Z,6.25
2023-01-26T19:48:47.326Z,6.93
2023-01-26T19:51:21.301Z,10.25
2023-01-26T19:53:50.831Z,7.38
2023-01-26T19:56:24.666Z,10.50
2023-01-26T19:59:01.317Z,7.15
2023-01-26T20:01:30.122Z,8.57
2023-01-26T20:04:01.064Z,6.65
2023-01-26T20:06:31.876Z,5.20
2023-01-26T20:08:59.610Z,8.98
2023-01-26T20:11:29.432Z,7.57
2023-01-26T20:13:57.838Z,8.15
2023-01-26T20:16:28.095Z,9.68
2023-01-26T20:18:56.966Z,5.68
2023-01-26T20:21:24.679Z,6.18
2023-01-26T20:23:55.487Z,7.70
2023-01-26T20:26:24.878Z,7.45
2023-01-26T20:28:52.522Z,5.82
2023-01-26T20:31:23.283Z,9.05
2023-01-26T20:33:53.278Z,6.50
2023-01-26T20:36:24.038Z,8.80
2023-01-26T20:38:51.521Z,8.50
2023-01-26T20:41:22.901Z,9.43
2023-01-26T20:43:59.628Z,9.60
2023-01-26T20:46:39.740Z,10.73
2023-01-26T20:49:10.733Z,9.15
2023-01-26T20:51:39.409Z,4.65
2023-01-26T20:54:08.794Z,7.10
2023-01-26T20:56:36.525Z,8.45
2023-01-26T20:59:05.125Z,8.98
2023-01-26T21:01:34.167Z,8.68
2023-01-26T21:04:02.116Z,6.47
2023-01-26T21:06:29.481Z,7.20
2023-01-26T21:08:59.034Z,7.20
2023-01-26T21:11:30.362Z,6.45
2023-01-26T21:14:00.455Z,6.20
2023-01-26T21:16:28.069Z,7.05
2023-01-26T21:18:55.360Z,7.32
2023-01-26T21:21:23.673Z,8.07
2023-01-26T21:23:50.970Z,5.55
2023-01-26T21:26:22.276Z,7.78
2023-01-26T21:28:58.247Z,7.18
2023-01-26T21:31:28.360Z,9.07
2023-01-26T21:33:56.293Z,5.72
2023-01-26T21:36:27.480Z,6.97
2023-01-26T21:38:57.628Z,6.53
2023-01-26T21:41:52.963Z,5.95
2023-01-26T21:44:31.396Z,4.22
2023-01-26T21:47:03.648Z,9.13
2023-01-26T21:49:30.827Z,7.10
2023-01-26T21:52:17.001Z,5.85
2023-01-26T21:54:43.792Z,4.35
2023-01-26T21:57:30.336Z,5.60
2023-01-26T21:59:57.302Z,6.53
2023-01-26T22:02:24.218Z,8.80
2023-01-26T22:04:51.456Z,9.77
2023-01-26T22:07:18.643Z,8.38
2023-01-26T22:09:45.574Z,8.85
2023-01-26T22:12:12.458Z,12.95
2023-01-26T22:14:39.656Z,8.88
2023-01-26T22:17:06.491Z,8.30
2023-01-26T22:19:33.323Z,7.10
2023-01-26T22:22:00.139Z,9.98
2023-01-26T22:24:26.987Z,7.90
2023-01-26T22:26:53.821Z,9.68
2023-01-26T22:29:20.670Z,10.48
2023-01-26T22:31:47.667Z,10.80
2023-01-26T22:34:14.535Z,9.05
2023-01-26T22:36:41.460Z,8.35
2023-01-26T22:39:08.507Z,6.72
2023-01-26T22:41:37.511Z,12.73
2023-01-26T22:44:04.440Z,9.75
2023-01-26T22:46:32.021Z,10.50
2023-01-26T22:48:59.863Z,8.90
2023-01-26T22:51:31.959Z,11.15
2023-01-26T22:53:59.668Z,8.20
2023-01-26T22:56:27.496Z,8.48
2023-01-26T22:58:59.857Z,10.23
2023-01-26T23:01:30.273Z,9.30
2023-01-26T23:03:58.570Z,8.27
2023-01-26T23:06:26.146Z,8.20
2023-01-26T23:08:53.906Z,6.53
2023-01-26T23:11:26.942Z,5.78
2023-01-26T23:13:56.132Z,6.55
2023-01-26T23:16:24.584Z,7.55
2023-01-26T23:18:57.211Z,6.78
2023-01-26T23:21:25.808Z,7.70
2023-01-26T23:23:52.789Z,6.68
2023-01-26T23:26:20.591Z,7.90
2023-01-26T23:28:47.901Z,9.52
2023-01-26T23:31:17.256Z,6.13
2023-01-26T23:33:44.455Z,10.18
2023-01-26T23:36:13.243Z,5.05
2023-01-26T23:38:40.122Z,4.45
2023-01-26T23:41:08.620Z,3.15
2023-01-26T23:43:35.833Z,3.63
2023-01-26T23:46:03.256Z,8.63
2023-01-26T23:48:30.252Z,4.18
2023-01-26T23:50:59.299Z,6.00
2023-01-26T23:53:27.764Z,9.13
2023-01-26T23:55:54.976Z,11.52
2023-01-26T23:58:21.888Z,9.93
